PWSweather.com
Personal Weather Stations
Station Observations
WISCHPK61
Green Bay Schmitt Park, Green Bay, WI 54311

Green Bay Schmitt ParkGreen Bay, WI 54311

Lat: 44.514277, Lon: -87.935067

Elevation: 735

Station Type: Acu Rite Pro Weather Center model 02032C

http://greenbayweathercam.com

High Low Average
Temperature 35.8°F2.1°C 28.2°F-2.1°C 32.3°F0.2°C
Dew Point 34.9°F1.6°C 22.2°F-5.4°C 29.8°F-1.2°C
Winds 1.2 mph 1.9 kmh Calm Calm Calm SWCalm SW
Wind Gusts 2.3 mph3.7 kmh -- --
Humidity 99% 76% 91%
Pressure 29.43 in996.6 mb 29.25 in990.5 mb -
Precipitation 0.13 in3.3 mm - -
Hour Temp Dew Point Humidity Winds Wind Gusts Pressure Precip Precip Rate Daily Precip Total
12:00 AM 28.2°F-2.1°C 22.2°F-5.4°C 78% Calm Calm -- 29.42 in996.3 mb - 0.00 in0.0 mm 0.00 in0.0 mm
01:00 AM 30.4°F-0.9°C 25.3°F-3.7°C 81% Calm Calm -- 29.41 in995.9 mb - 0.00 in0.0 mm 0.00 in0.0 mm
02:00 AM 31.5°F-0.3°C 31.3°F-0.4°C 99% Calm Calm -- 29.37 in994.6 mb - 0.00 in0.0 mm 0.00 in0.0 mm
03:00 AM 31.0°F-0.6°C 25.9°F-3.4°C 81% Calm Calm -- 29.35 in993.9 mb - 0.00 in0.0 mm 0.00 in0.0 mm
04:00 AM 29.5°F-1.4°C 29.3°F-1.5°C 99% Calm Calm -- 29.32 in992.9 mb - 0.00 in0.0 mm 0.00 in0.0 mm
05:00 AM 29.3°F-1.5°C 26.7°F-2.9°C 90% Calm Calm -- 29.30 in992.2 mb - 0.00 in0.0 mm 0.00 in0.0 mm
06:00 AM 29.3°F-1.5°C 29.1°F-1.6°C 99% Calm Calm -- 29.29 in991.9 mb - 0.00 in0.0 mm 0.00 in0.0 mm
07:00 AM 31.6°F-0.2°C 29.5°F-1.4°C 92% Calm Calm -- 29.27 in991.2 mb - 0.00 in0.0 mm 0.00 in0.0 mm
08:00 AM 32.4°F0.2°C 31.9°F-0.1°C 98% Calm Calm -- 29.27 in991.2 mb - 0.00 in0.0 mm 0.00 in0.0 mm
09:00 AM 33.8°F1.0°C 33.5°F0.8°C 99% Calm Calm -- 29.25 in990.5 mb - 0.00 in0.0 mm 0.00 in0.0 mm
10:00 AM 33.6°F0.9°C 31.0°F-0.6°C 90% Calm Calm -- 29.26 in990.9 mb - 0.00 in0.0 mm 0.00 in0.0 mm
11:00 AM 33.6°F0.9°C 32.3°F0.2°C 95% Calm Calm -- 29.27 in991.2 mb - 0.00 in0.0 mm 0.00 in0.0 mm
12:00 PM 34.4°F1.3°C 31.2°F-0.4°C 88% Calm Calm -- 29.27 in991.2 mb - 0.00 in0.0 mm 0.00 in0.0 mm
01:00 PM 35.8°F2.1°C 34.0°F1.1°C 93% Calm Calm -- 29.25 in990.5 mb - 0.00 in0.0 mm 0.00 in0.0 mm
02:00 PM 35.2°F1.8°C 34.9°F1.6°C 99% Calm Calm -- 29.25 in990.5 mb - 0.00 in0.0 mm 0.00 in0.0 mm
03:00 PM 34.3°F1.3°C 31.4°F-0.3°C 89% Calm Calm -- 29.27 in991.2 mb - 0.00 in0.0 mm 0.00 in0.0 mm
04:00 PM 33.8°F1.0°C 33.5°F0.8°C 99% Calm Calm -- 29.29 in991.9 mb - 0.00 in0.0 mm 0.00 in0.0 mm
05:00 PM 33.4°F0.8°C 26.6°F-3.0°C 76% 1.2 mph WNW1.9 kmh WNW 2.3 mph3.7 kmh 29.31 in992.6 mb - 0.06 in1.5 mm 0.06 in1.5 mm
06:00 PM 33.6°F0.9°C 28.7°F-1.8°C 82% Calm Calm -- 29.34 in993.6 mb - 0.03 in0.8 mm 0.09 in2.3 mm
07:00 PM 33.4°F0.8°C 28.8°F-1.8°C 83% Calm Calm -- 29.36 in994.2 mb - 0.03 in0.8 mm 0.12 in3.0 mm
08:00 PM 33.1°F0.6°C 26.7°F-2.9°C 77% Calm Calm -- 29.37 in994.6 mb - 0.01 in0.3 mm 0.12 in3.0 mm
09:00 PM 32.2°F0.1°C 32.0°F0.0°C 99% Calm Calm -- 29.39 in995.3 mb - 0.01 in0.3 mm 0.13 in3.3 mm
10:00 PM 30.9°F-0.6°C 30.7°F-0.7°C 99% Calm Calm -- 29.40 in995.6 mb - 0.00 in0.0 mm 0.13 in3.3 mm
11:00 PM 29.8°F-1.2°C 29.6°F-1.3°C 99% Calm Calm -- 29.43 in996.6 mb - 0.00 in0.0 mm 0.13 in3.3 mm